CheckWX is a tool to help pilots better visualize weather data.  It is not intended as a substitute for an official pre-flight weather briefing.

03:11:56 UTC

66R METAR
Robert R Wells Jr Airport
Columbus, Texas, USA
Current

17 mins ago

K66R 170255Z AUTO 16009G15KT 3SM BR BKN003 16/14 A2996 RMK AO2 T01600142
Observed
Feb-17 @ 02:55 UTC
Wind
  • 160° at 9 KTS
  • Gusting to 15 KTS
Visibility
3 SM
Flight Rules
LIFR
Conditions
Mist
Cloud Levels
  • Broken at 300' AGL
Temperature
16°C / 61°F
Dewpoint
14°C / 57°F
Humidity
88%
Altimeter
29.96" Hg
Pressure
1014.52 hPa
Previous

37 mins ago

K66R 170235Z AUTO 16007KT 10SM SCT005 16/14 A2995 RMK AO2 T01630142
Observed
Feb-17 @ 02:35 UTC
Wind
  • 160° at 7 KTS
Visibility
10 SM
Flight Rules
VFR
Cloud Levels
  • Scattered at 500' AGL
Temperature
16°C / 61°F
Dewpoint
14°C / 57°F
Humidity
88%
Altimeter
29.95" Hg
Pressure
1014.22 hPa
Previous

57 mins ago

K66R 170215Z AUTO 15008KT 10SM CLR 17/14 A2995 RMK AO2 T01650142
Observed
Feb-17 @ 02:15 UTC
Wind
  • 150° at 8 KTS
Visibility
10 SM
Flight Rules
VFR
Cloud Levels
  • Clear skies
Temperature
17°C / 63°F
Dewpoint
14°C / 57°F
Humidity
83%
Altimeter
29.95" Hg
Pressure
1014.22 hPa